Twentynine Palms, CA

12:31 PM PDT on October 31, 2014 (GMT -0700)
MesoWest Twentynine Palms JTNP CA US SGXWFO | Change Station
CLOSE
Current Station
Personal Weather Station
Location: Twentynine Palms, CA
Elevation: 1975 ft
Nearby Weather Stations

Elev 1975 ft 34.13 °N, 116.04 °W | Updated 35 minutes ago

Clear
Clear
78 °F
Feels Like 78 °F
N
3
Wind Variable Wind from ESE
Gusts 0.0 mph

Today
High -- | Low -- °F
--% Chance of Precip.
Yesterday
High -- | Low -- °F
Precip. -- in
7:03 AM 5:52 PM
First Quarter, 58% visible
Pressure 29.86 in
Visibility 10.0 miles
Clouds Few 12000 ft
Heat Index 78 °F
Dew Point 37 °F
Humidity 23%
Rainfall -999.00 in
Snow Depth Not available.
UV 5 out of 12
Pollen 2.70 out of 12
Air Quality Not available.
Flu Activity Not available.
METAR KNXP 311856Z 13007KT 10SM FEW120 25/02 A2995 RMK AO2 SLP111 T02500017 $

More Conditions Fewer Conditions

Pressure 29.86 in
Visibility 10.0 miles
Clouds Few 12000 ft
Heat Index 78 °F
Dew Point 37 °F
Humidity 23%
Rainfall -999.00 in
Snow Depth Not available.
UV 5 out of 12
Pollen 2.70 out of 12
Air Quality Not available.
Flu Activity Not available.
METAR KNXP 311856Z 13007KT 10SM FEW120 25/02 A2995 RMK AO2 SLP111 T02500017 $

More Conditions Fewer Conditions

10-Day Weather Forecast

Almanac

Astronomy

Oct. 31, 2014 Rise Set
Actual Time
Civil Twilight
Nautical Twilight
Astronomical Twilight
Moon
Length of Visible Light
Length of Day
Tomorrow will be .
, % of the Moon is Illuminated

Today's Extremes

State Highs State Lows

Community

WunderPhotos

Upload Photos

1,766,699 photos uploaded!

WunderBlogs® & News

Nearby

Air Quality

  Air Quality AQ Index Pollutant
Not available.

Snow Depth

Station Depth Elevation

Earthquake Activity

City Distance Mag. Time & Date
Minimum magnitude displayed is 2.5.

Coastal Water Temperatures

Place Temperature

Nearby Weather Stations